sensor_id;sensor_type;location;lat;lon;timestamp;pressure;altitude;pressure_sealevel;temperature;humidity
80116;BME280;69423;47.608;19.366;2023-05-07T00:00:30;98978.13;;;13.99;81.03
80116;BME280;69423;47.608;19.366;2023-05-07T00:01:01;98986.16;;;13.99;80.48
80116;BME280;69423;47.608;19.366;2023-05-07T00:01:33;98982.66;;;13.99;80.37
80116;BME280;69423;47.608;19.366;2023-05-07T00:02:03;98976.69;;;13.96;80.43
80116;BME280;69423;47.608;19.366;2023-05-07T00:02:34;98983.06;;;13.95;81.28
80116;BME280;69423;47.608;19.366;2023-05-07T00:03:05;98977.31;;;13.99;81.07
80116;BME280;69423;47.608;19.366;2023-05-07T00:03:37;98993.41;;;13.99;80.76
80116;BME280;69423;47.608;19.366;2023-05-07T00:04:08;98985.34;;;13.99;80.57
80116;BME280;69423;47.608;19.366;2023-05-07T00:04:39;98985.56;;;13.97;80.12
80116;BME280;69423;47.608;19.366;2023-05-07T00:05:11;98988.22;;;13.97;80.83
80116;BME280;69423;47.608;19.366;2023-05-07T00:05:42;98990.91;;;13.97;80.31
80116;BME280;69423;47.608;19.366;2023-05-07T00:06:12;98989.66;;;14.00;80.61
80116;BME280;69423;47.608;19.366;2023-05-07T00:06:43;98988.03;;;13.99;80.25
80116;BME280;69423;47.608;19.366;2023-05-07T00:07:15;98977.31;;;13.99;80.41
80116;BME280;69423;47.608;19.366;2023-05-07T00:07:46;98980.19;;;13.97;80.38
80116;BME280;69423;47.608;19.366;2023-05-07T00:08:17;98982.25;;;13.95;80.99
80116;BME280;69423;47.608;19.366;2023-05-07T00:08:48;98971.53;;;13.95;80.33
80116;BME280;69423;47.608;19.366;2023-05-07T00:09:19;98976.25;;;13.93;80.67
80116;BME280;69423;47.608;19.366;2023-05-07T00:09:49;98980.56;;;13.87;80.65
80116;BME280;69423;47.608;19.366;2023-05-07T00:10:20;98976.47;;;13.85;80.60
80116;BME280;69423;47.608;19.366;2023-05-07T00:10:51;98970.28;;;13.84;80.68
80116;BME280;69423;47.608;19.366;2023-05-07T00:11:22;98973.59;;;13.86;80.71
80116;BME280;69423;47.608;19.366;2023-05-07T00:11:53;98982.44;;;13.87;80.56
80116;BME280;69423;47.608;19.366;2023-05-07T00:12:24;98972.75;;;13.86;80.71
80116;BME280;69423;47.608;19.366;2023-05-07T00:12:55;98973.16;;;13.83;80.62
80116;BME280;69423;47.608;19.366;2023-05-07T00:13:25;98970.66;;;13.81;81.30
80116;BME280;69423;47.608;19.366;2023-05-07T00:13:56;98978.72;;;13.81;81.20
80116;BME280;69423;47.608;19.366;2023-05-07T00:14:27;98982.44;;;13.80;81.18
80116;BME280;69423;47.608;19.366;2023-05-07T00:14:58;98977.06;;;13.80;80.90
80116;BME280;69423;47.608;19.366;2023-05-07T00:15:29;98982.63;;;13.79;80.26
80116;BME280;69423;47.608;19.366;2023-05-07T00:16:00;98988.22;;;13.77;80.82
80116;BME280;69423;47.608;19.366;2023-05-07T00:16:31;98982.84;;;13.77;80.55
80116;BME280;69423;47.608;19.366;2023-05-07T00:17:02;98979.56;;;13.75;80.64
80116;BME280;69423;47.608;19.366;2023-05-07T00:17:33;98987.97;;;13.72;80.29
80116;BME280;69423;47.608;19.366;2023-05-07T00:18:04;98980.13;;;13.70;81.07
80116;BME280;69423;47.608;19.366;2023-05-07T00:18:35;98990.84;;;13.70;80.88
80116;BME280;69423;47.608;19.366;2023-05-07T00:19:06;98979.13;;;13.71;81.18
80116;BME280;69423;47.608;19.366;2023-05-07T00:19:37;98977.06;;;13.73;81.14
80116;BME280;69423;47.608;19.366;2023-05-07T00:20:08;98984.28;;;13.73;81.26
80116;BME280;69423;47.608;19.366;2023-05-07T00:20:39;98980.75;;;13.72;80.97
80116;BME280;69423;47.608;19.366;2023-05-07T00:21:10;98978.31;;;13.71;80.68
80116;BME280;69423;47.608;19.366;2023-05-07T00:21:41;98987.97;;;13.72;80.20
80116;BME280;69423;47.608;19.366;2023-05-07T00:22:12;98987.97;;;13.72;80.30
80116;BME280;69423;47.608;19.366;2023-05-07T00:22:43;98984.88;;;13.68;80.72
80116;BME280;69423;47.608;19.366;2023-05-07T00:23:14;98989.41;;;13.61;80.95
80116;BME280;69423;47.608;19.366;2023-05-07T00:23:45;98990.41;;;13.53;80.96
80116;BME280;69423;47.608;19.366;2023-05-07T00:24:16;98984.84;;;13.48;80.64
80116;BME280;69423;47.608;19.366;2023-05-07T00:24:46;98987.06;;;13.45;81.55
80116;BME280;69423;47.608;19.366;2023-05-07T00:25:18;98983.78;;;13.43;81.15
80116;BME280;69423;47.608;19.366;2023-05-07T00:25:50;98989.13;;;13.43;81.84
80116;BME280;69423;47.608;19.366;2023-05-07T00:26:22;98984.81;;;13.42;81.39
80116;BME280;69423;47.608;19.366;2023-05-07T00:26:53;98990.38;;;13.40;81.80
80116;BME280;69423;47.608;19.366;2023-05-07T00:27:24;98987.06;;;13.38;82.44
80116;BME280;69423;47.608;19.366;2023-05-07T00:27:55;98985.44;;;13.44;82.41
80116;BME280;69423;47.608;19.366;2023-05-07T00:28:28;98984.19;;;13.46;81.75
80116;BME280;69423;47.608;19.366;2023-05-07T00:28:58;98993.88;;;13.47;81.81
80116;BME280;69423;47.608;19.366;2023-05-07T00:29:29;98980.69;;;13.46;81.62
80116;BME280;69423;47.608;19.366;2023-05-07T00:30:00;98981.53;;;13.46;81.46
80116;BME280;69423;47.608;19.366;2023-05-07T00:30:31;98984.59;;;13.43;81.39
80116;BME280;69423;47.608;19.366;2023-05-07T00:31:02;98991.63;;;13.44;81.79
80116;BME280;69423;47.608;19.366;2023-05-07T00:31:33;98994.47;;;13.43;81.80
80116;BME280;69423;47.608;19.366;2023-05-07T00:32:04;98988.31;;;13.42;81.74
80116;BME280;69423;47.608;19.366;2023-05-07T00:32:35;98985.63;;;13.42;81.59
80116;BME280;69423;47.608;19.366;2023-05-07T00:33:07;98988.31;;;13.42;81.88
80116;BME280;69423;47.608;19.366;2023-05-07T00:33:38;98977.59;;;13.42;81.77
80116;BME280;69423;47.608;19.366;2023-05-07T00:34:09;98987.06;;;13.38;81.70
80116;BME280;69423;47.608;19.366;2023-05-07T00:34:40;98984.97;;;13.33;82.02
80116;BME280;69423;47.608;19.366;2023-05-07T00:35:11;98982.94;;;13.35;81.78
80116;BME280;69423;47.608;19.366;2023-05-07T00:35:42;98982.53;;;13.39;81.55
80116;BME280;69423;47.608;19.366;2023-05-07T00:36:13;98979.03;;;13.38;82.02
80116;BME280;69423;47.608;19.366;2023-05-07T00:36:44;98987.38;;;13.28;82.23
80116;BME280;69423;47.608;19.366;2023-05-07T00:37:15;98977.53;;;13.29;82.80
80116;BME280;69423;47.608;19.366;2023-05-07T00:37:45;98980.97;;;13.23;82.74
80116;BME280;69423;47.608;19.366;2023-05-07T00:38:16;98980.34;;;13.21;82.30
80116;BME280;69423;47.608;19.366;2023-05-07T00:38:47;98992.13;;;13.26;81.97
80116;BME280;69423;47.608;19.366;2023-05-07T00:39:18;98983.13;;;13.34;81.85
80116;BME280;69423;47.608;19.366;2023-05-07T00:39:49;98984.13;;;13.33;82.28
80116;BME280;69423;47.608;19.366;2023-05-07T00:40:20;98989.91;;;13.30;82.14
80116;BME280;69423;47.608;19.366;2023-05-07T00:40:51;98986.56;;;13.28;82.14
80116;BME280;69423;47.608;19.366;2023-05-07T00:41:22;98988.25;;;13.29;82.27
80116;BME280;69423;47.608;19.366;2023-05-07T00:41:53;98985.38;;;13.30;81.72
80116;BME280;69423;47.608;19.366;2023-05-07T00:42:24;98984.97;;;13.33;82.07
80116;BME280;69423;47.608;19.366;2023-05-07T00:42:55;98984.56;;;13.30;82.01
80116;BME280;69423;47.608;19.366;2023-05-07T00:43:28;98992.41;;;13.31;81.55
80116;BME280;69423;47.608;19.366;2023-05-07T00:43:59;98985.56;;;13.29;81.62
80116;BME280;69423;47.608;19.366;2023-05-07T00:44:33;98990.91;;;13.29;81.41
80116;BME280;69423;47.608;19.366;2023-05-07T00:45:04;98987.22;;;13.30;81.26
80116;BME280;69423;47.608;19.366;2023-05-07T00:45:35;98984.34;;;13.31;81.47
80116;BME280;69423;47.608;19.366;2023-05-07T00:46:05;98988.66;;;13.32;81.46
80116;BME280;69423;47.608;19.366;2023-05-07T00:46:37;98993.22;;;13.32;81.74
80116;BME280;69423;47.608;19.366;2023-05-07T00:47:08;98986.19;;;13.31;81.91
80116;BME280;69423;47.608;19.366;2023-05-07T00:47:40;98988.25;;;13.29;81.85
80116;BME280;69423;47.608;19.366;2023-05-07T00:48:11;98989.25;;;13.28;82.30
80116;BME280;69423;47.608;19.366;2023-05-07T00:48:42;98994.44;;;13.29;82.15
80116;BME280;69423;47.608;19.366;2023-05-07T00:49:13;98984.56;;;13.30;82.22
80116;BME280;69423;47.608;19.366;2023-05-07T00:49:45;98987.03;;;13.31;81.64
80116;BME280;69423;47.608;19.366;2023-05-07T00:50:16;98989.91;;;13.30;82.31
80116;BME280;69423;47.608;19.366;2023-05-07T00:50:47;98992.59;;;13.30;81.67
80116;BME280;69423;47.608;19.366;2023-05-07T00:51:18;98988.25;;;13.29;81.98
80116;BME280;69423;47.608;19.366;2023-05-07T00:51:50;98980.84;;;13.31;81.81
80116;BME280;69423;47.608;19.366;2023-05-07T00:52:25;98989.91;;;13.30;81.52
80116;BME280;69423;47.608;19.366;2023-05-07T00:52:56;98988.25;;;13.29;82.11
80116;BME280;69423;47.608;19.366;2023-05-07T00:53:28;98989.25;;;13.28;82.11
80116;BME280;69423;47.608;19.366;2023-05-07T00:54:00;98986.56;;;13.28;82.21
80116;BME280;69423;47.608;19.366;2023-05-07T00:54:33;98985.94;;;13.26;82.26
80116;BME280;69423;47.608;19.366;2023-05-07T00:55:06;98982.88;;;13.29;82.21
80116;BME280;69423;47.608;19.366;2023-05-07T00:55:38;98985.56;;;13.29;82.38
80116;BME280;69423;47.608;19.366;2023-05-07T00:56:09;98992.75;;;13.28;82.48
80116;BME280;69423;47.608;19.366;2023-05-07T00:56:40;98986.56;;;13.28;82.33
80116;BME280;69423;47.608;19.366;2023-05-07T00:57:11;98984.56;;;13.30;82.02
80116;BME280;69423;47.608;19.366;2023-05-07T00:57:43;98982.50;;;13.32;82.23
80116;BME280;69423;47.608;19.366;2023-05-07T00:58:15;98987.22;;;13.30;81.89
80116;BME280;69423;47.608;19.366;2023-05-07T00:58:46;98982.50;;;13.32;82.12
80116;BME280;69423;47.608;19.366;2023-05-07T00:59:17;98985.63;;;13.35;82.07
80116;BME280;69423;47.608;19.366;2023-05-07T00:59:50;98979.41;;;13.35;81.95
80116;BME280;69423;47.608;19.366;2023-05-07T01:00:22;98975.72;;;13.36;81.86
80116;BME280;69423;47.608;19.366;2023-05-07T01:00:53;98979.03;;;13.38;82.00
80116;BME280;69423;47.608;19.366;2023-05-07T01:01:23;98985.81;;;13.41;81.97
80116;BME280;69423;47.608;19.366;2023-05-07T01:01:55;98977.97;;;13.39;81.50
80116;BME280;69423;47.608;19.366;2023-05-07T01:02:25;98982.31;;;13.40;82.06
80116;BME280;69423;47.608;19.366;2023-05-07T01:02:57;98992.00;;;13.41;81.81
80116;BME280;69423;47.608;19.366;2023-05-07T01:03:28;98984.19;;;13.40;81.79
80116;BME280;69423;47.608;19.366;2023-05-07T01:03:59;98984.19;;;13.40;82.00
80116;BME280;69423;47.608;19.366;2023-05-07T01:04:30;98986.00;;;13.39;81.67
80116;BME280;69423;47.608;19.366;2023-05-07T01:05:02;98990.38;;;13.40;81.86
80116;BME280;69423;47.608;19.366;2023-05-07T01:05:35;98977.97;;;13.39;82.22
80116;BME280;69423;47.608;19.366;2023-05-07T01:06:07;98987.50;;;13.42;82.04
80116;BME280;69423;47.608;19.366;2023-05-07T01:06:38;98992.84;;;13.42;81.98
80116;BME280;69423;47.608;19.366;2023-05-07T01:07:09;98983.75;;;13.36;82.08
80116;BME280;69423;47.608;19.366;2023-05-07T01:07:41;98981.88;;;13.36;82.56
80116;BME280;69423;47.608;19.366;2023-05-07T01:08:14;98982.13;;;13.42;82.65
80116;BME280;69423;47.608;19.366;2023-05-07T01:08:46;98991.63;;;13.44;82.31
80116;BME280;69423;47.608;19.366;2023-05-07T01:09:19;98989.56;;;13.46;82.19
80116;BME280;69423;47.608;19.366;2023-05-07T01:09:51;98988.50;;;13.41;82.27
80116;BME280;69423;47.608;19.366;2023-05-07T01:10:22;98992.41;;;13.38;82.51
80116;BME280;69423;47.608;19.366;2023-05-07T01:10:55;98984.19;;;13.40;82.74
80116;BME280;69423;47.608;19.366;2023-05-07T01:11:26;98987.88;;;13.39;82.56
80116;BME280;69423;47.608;19.366;2023-05-07T01:11:58;98987.06;;;13.38;82.57
80116;BME280;69423;47.608;19.366;2023-05-07T01:12:30;98981.88;;;13.36;82.69
80116;BME280;69423;47.608;19.366;2023-05-07T01:13:01;98990.75;;;13.37;82.68
80116;BME280;69423;47.608;19.366;2023-05-07T01:13:34;98994.06;;;13.39;82.82
80116;BME280;69423;47.608;19.366;2023-05-07T01:14:07;98993.25;;;13.45;82.36
80116;BME280;69423;47.608;19.366;2023-05-07T01:14:39;98992.88;;;13.48;82.08
80116;BME280;69423;47.608;19.366;2023-05-07T01:15:10;98993.50;;;13.50;82.19
80116;BME280;69423;47.608;19.366;2023-05-07T01:15:42;98989.16;;;13.49;82.64
80116;BME280;69423;47.608;19.366;2023-05-07T01:16:13;98993.69;;;13.49;82.19
80116;BME280;69423;47.608;19.366;2023-05-07T01:16:44;99000.69;;;13.50;82.56
80116;BME280;69423;47.608;19.366;2023-05-07T01:17:15;98980.47;;;13.47;82.56
80116;BME280;69423;47.608;19.366;2023-05-07T01:17:46;99001.91;;;13.47;82.87
80116;BME280;69423;47.608;19.366;2023-05-07T01:18:17;98987.50;;;13.48;82.58
80116;BME280;69423;47.608;19.366;2023-05-07T01:18:49;98990.81;;;13.50;82.60
80116;BME280;69423;47.608;19.366;2023-05-07T01:19:20;99000.09;;;13.54;82.09
80116;BME280;69423;47.608;19.366;2023-05-07T01:19:51;98996.38;;;13.55;81.69
80116;BME280;69423;47.608;19.366;2023-05-07T01:20:23;98993.50;;;13.57;81.44
80116;BME280;69423;47.608;19.366;2023-05-07T01:20:57;98998.25;;;13.55;81.69
80116;BME280;69423;47.608;19.366;2023-05-07T01:21:32;98996.56;;;13.47;82.33
80116;BME280;69423;47.608;19.366;2023-05-07T01:22:08;98999.22;;;13.41;82.06
80116;BME280;69423;47.608;19.366;2023-05-07T01:22:40;98996.09;;;13.37;82.17
80116;BME280;69423;47.608;19.366;2023-05-07T01:23:11;98995.28;;;13.36;82.74
80116;BME280;69423;47.608;19.366;2023-05-07T01:23:44;98994.91;;;13.40;82.77
80116;BME280;69423;47.608;19.366;2023-05-07T01:24:16;98993.84;;;13.41;83.01
80116;BME280;69423;47.608;19.366;2023-05-07T01:24:47;98992.00;;;13.41;82.46
80116;BME280;69423;47.608;19.366;2023-05-07T01:25:18;98995.31;;;13.43;82.50
80116;BME280;69423;47.608;19.366;2023-05-07T01:25:55;98993.06;;;13.47;82.78
80116;BME280;69423;47.608;19.366;2023-05-07T01:26:26;98992.00;;;13.48;82.58
80116;BME280;69423;47.608;19.366;2023-05-07T01:26:57;98996.34;;;13.49;82.19
80116;BME280;69423;47.608;19.366;2023-05-07T01:27:27;98994.91;;;13.46;82.49
80116;BME280;69423;47.608;19.366;2023-05-07T01:27:58;98993.69;;;13.49;82.74
80116;BME280;69423;47.608;19.366;2023-05-07T01:28:32;98998.63;;;13.52;82.79
80116;BME280;69423;47.608;19.366;2023-05-07T01:29:03;98996.16;;;13.50;82.46
80116;BME280;69423;47.608;19.366;2023-05-07T01:29:34;98997.81;;;13.51;82.42
80116;BME280;69423;47.608;19.366;2023-05-07T01:30:07;98991.81;;;13.49;82.21
80116;BME280;69423;47.608;19.366;2023-05-07T01:30:42;98994.50;;;13.49;82.28
80116;BME280;69423;47.608;19.366;2023-05-07T01:31:17;98991.63;;;13.51;82.29
80116;BME280;69423;47.608;19.366;2023-05-07T01:31:50;98997.19;;;13.49;82.94
80116;BME280;69423;47.608;19.366;2023-05-07T01:32:52;98998.63;;;13.52;82.83
80116;BME280;69423;47.608;19.366;2023-05-07T01:33:25;98993.69;;;13.55;82.79
80116;BME280;69423;47.608;19.366;2023-05-07T01:34:00;98999.50;;;13.59;82.40
80116;BME280;69423;47.608;19.366;2023-05-07T01:34:32;98994.75;;;13.54;82.42
80116;BME280;69423;47.608;19.366;2023-05-07T01:35:07;99000.28;;;13.53;82.86
80116;BME280;69423;47.608;19.366;2023-05-07T01:35:45;98999.88;;;13.56;82.25
80116;BME280;69423;47.608;19.366;2023-05-07T01:36:19;98992.69;;;13.56;81.79
80116;BME280;69423;47.608;19.366;2023-05-07T01:36:54;98994.94;;;13.60;81.70
80116;BME280;69423;47.608;19.366;2023-05-07T01:37:26;98990.41;;;13.53;81.77
80116;BME280;69423;47.608;19.366;2023-05-07T01:37:57;98987.50;;;13.48;82.24
80116;BME280;69423;47.608;19.366;2023-05-07T01:38:28;98991.63;;;13.44;82.06
80116;BME280;69423;47.608;19.366;2023-05-07T01:38:59;99000.03;;;13.41;82.50
80116;BME280;69423;47.608;19.366;2023-05-07T01:39:31;98990.16;;;13.42;82.70
80116;BME280;69423;47.608;19.366;2023-05-07T01:40:03;98988.31;;;13.42;82.85
80116;BME280;69423;47.608;19.366;2023-05-07T01:40:34;98993.03;;;13.40;83.07
80116;BME280;69423;47.608;19.366;2023-05-07T01:41:06;98988.69;;;13.39;83.23
80116;BME280;69423;47.608;19.366;2023-05-07T01:41:37;98986.25;;;13.38;83.00
80116;BME280;69423;47.608;19.366;2023-05-07T01:42:08;98987.06;;;13.38;83.36
80116;BME280;69423;47.608;19.366;2023-05-07T01:42:41;98990.56;;;13.39;83.66
80116;BME280;69423;47.608;19.366;2023-05-07T01:43:13;98986.63;;;13.41;83.23
80116;BME280;69423;47.608;19.366;2023-05-07T01:43:44;98985.84;;;13.47;82.87
80116;BME280;69423;47.608;19.366;2023-05-07T01:44:16;98987.09;;;13.51;82.76
80116;BME280;69423;47.608;19.366;2023-05-07T01:44:49;98996.19;;;13.57;83.02
80116;BME280;69423;47.608;19.366;2023-05-07T01:45:19;98987.94;;;13.59;82.34
80116;BME280;69423;47.608;19.366;2023-05-07T01:45:52;98983.41;;;13.59;82.59
80116;BME280;69423;47.608;19.366;2023-05-07T01:46:23;98983.22;;;13.61;82.47
80116;BME280;69423;47.608;19.366;2023-05-07T01:46:56;98981.34;;;13.61;82.96
80116;BME280;69423;47.608;19.366;2023-05-07T01:47:29;98977.88;;;13.61;82.99
80116;BME280;69423;47.608;19.366;2023-05-07T01:48:01;98984.03;;;13.61;82.73
80116;BME280;69423;47.608;19.366;2023-05-07T01:48:32;98988.34;;;13.62;83.00
80116;BME280;69423;47.608;19.366;2023-05-07T01:49:04;98985.06;;;13.60;82.88
80116;BME280;69423;47.608;19.366;2023-05-07T01:49:35;98988.16;;;13.64;82.98
80116;BME280;69423;47.608;19.366;2023-05-07T01:50:07;98986.53;;;13.63;82.67
80116;BME280;69423;47.608;19.366;2023-05-07T01:50:39;98988.16;;;13.64;83.41
80116;BME280;69423;47.608;19.366;2023-05-07T01:51:10;98988.97;;;13.64;83.42
80116;BME280;69423;47.608;19.366;2023-05-07T01:51:41;98986.31;;;13.64;83.50
80116;BME280;69423;47.608;19.366;2023-05-07T01:52:12;98990.66;;;13.65;83.40
80116;BME280;69423;47.608;19.366;2023-05-07T01:52:43;98984.25;;;13.66;83.43
80116;BME280;69423;47.608;19.366;2023-05-07T01:53:15;98993.94;;;13.67;83.58
80116;BME280;69423;47.608;19.366;2023-05-07T01:53:45;98992.50;;;13.65;83.85
80116;BME280;69423;47.608;19.366;2023-05-07T01:54:25;98986.91;;;13.66;83.68
80116;BME280;69423;47.608;19.366;2023-05-07T01:54:58;98995.59;;;13.68;83.88
80116;BME280;69423;47.608;19.366;2023-05-07T01:55:29;98995.59;;;13.68;83.55
80116;BME280;69423;47.608;19.366;2023-05-07T01:56:00;98999.13;;;13.69;83.56
80116;BME280;69423;47.608;19.366;2023-05-07T01:56:30;98990.03;;;13.70;83.68
80116;BME280;69423;47.608;19.366;2023-05-07T01:57:01;98988.78;;;13.72;83.32
80116;BME280;69423;47.608;19.366;2023-05-07T01:57:32;98993.56;;;13.77;83.30
80116;BME280;69423;47.608;19.366;2023-05-07T01:58:04;98990.47;;;13.80;83.24
80116;BME280;69423;47.608;19.366;2023-05-07T01:58:35;98988.41;;;13.82;83.10
80116;BME280;69423;47.608;19.366;2023-05-07T01:59:06;98983.69;;;13.84;82.62
80116;BME280;69423;47.608;19.366;2023-05-07T01:59:37;98985.31;;;13.85;83.38
80116;BME280;69423;47.608;19.366;2023-05-07T02:00:08;98987.78;;;13.87;83.13
80116;BME280;69423;47.608;19.366;2023-05-07T02:00:40;98983.47;;;13.86;83.59
80116;BME280;69423;47.608;19.366;2023-05-07T02:01:12;98982.63;;;13.85;82.83
80116;BME280;69423;47.608;19.366;2023-05-07T02:01:43;98992.34;;;13.86;83.07
80116;BME280;69423;47.608;19.366;2023-05-07T02:02:14;98985.13;;;13.87;82.78
80116;BME280;69423;47.608;19.366;2023-05-07T02:02:44;98995.03;;;13.86;83.03
80116;BME280;69423;47.608;19.366;2023-05-07T02:03:15;98982.63;;;13.85;83.37
80116;BME280;69423;47.608;19.366;2023-05-07T02:03:47;98986.78;;;13.88;83.24
80116;BME280;69423;47.608;19.366;2023-05-07T02:04:18;98997.28;;;13.89;83.38
80116;BME280;69423;47.608;19.366;2023-05-07T02:04:49;98987.19;;;13.91;83.11
80116;BME280;69423;47.608;19.366;2023-05-07T02:05:20;98988.03;;;13.92;83.14
80116;BME280;69423;47.608;19.366;2023-05-07T02:05:51;98978.13;;;13.92;82.96
80116;BME280;69423;47.608;19.366;2023-05-07T02:06:21;98987.19;;;13.91;83.19
80116;BME280;69423;47.608;19.366;2023-05-07T02:06:52;98983.50;;;13.92;83.26
80116;BME280;69423;47.608;19.366;2023-05-07T02:07:23;98980.63;;;13.94;82.58
80116;BME280;69423;47.608;19.366;2023-05-07T02:07:54;98986.78;;;13.94;83.12
80116;BME280;69423;47.608;19.366;2023-05-07T02:08:25;98984.09;;;13.94;83.02
80116;BME280;69423;47.608;19.366;2023-05-07T02:08:56;98983.06;;;13.95;82.89
80116;BME280;69423;47.608;19.366;2023-05-07T02:09:26;98975.88;;;13.96;83.04
80116;BME280;69423;47.608;19.366;2023-05-07T02:09:57;98977.31;;;13.99;83.09
80116;BME280;69423;47.608;19.366;2023-05-07T02:10:28;98977.31;;;13.99;82.40
80116;BME280;69423;47.608;19.366;2023-05-07T02:10:59;98972.78;;;13.99;82.25
80116;BME280;69423;47.608;19.366;2023-05-07T02:11:30;98973.59;;;14.00;82.28
80116;BME280;69423;47.608;19.366;2023-05-07T02:12:01;98974.00;;;13.96;82.11
80116;BME280;69423;47.608;19.366;2023-05-07T02:12:32;98973.59;;;13.93;82.24
80116;BME280;69423;47.608;19.366;2023-05-07T02:13:02;98973.78;;;13.91;82.76
80116;BME280;69423;47.608;19.366;2023-05-07T02:13:34;98972.97;;;13.91;83.06
80116;BME280;69423;47.608;19.366;2023-05-07T02:14:05;98976.25;;;13.93;83.21
80116;BME280;69423;47.608;19.366;2023-05-07T02:14:36;98973.78;;;13.91;82.84
80116;BME280;69423;47.608;19.366;2023-05-07T02:15:07;98971.53;;;13.88;83.55
80116;BME280;69423;47.608;19.366;2023-05-07T02:15:38;98974.81;;;13.90;83.45
80116;BME280;69423;47.608;19.366;2023-05-07T02:16:09;98978.13;;;13.92;83.14
80116;BME280;69423;47.608;19.366;2023-05-07T02:16:41;98968.41;;;13.91;83.18
80116;BME280;69423;47.608;19.366;2023-05-07T02:17:12;98971.94;;;13.92;82.83
80116;BME280;69423;47.608;19.366;2023-05-07T02:18:30;98967.41;;;13.92;82.84
80116;BME280;69423;47.608;19.366;2023-05-07T02:19:02;98970.09;;;13.92;83.40
80116;BME280;69423;47.608;19.366;2023-05-07T02:19:33;98967.41;;;13.92;83.38
80116;BME280;69423;47.608;19.366;2023-05-07T02:20:04;98975.44;;;13.92;83.35
80116;BME280;69423;47.608;19.366;2023-05-07T02:20:35;98977.50;;;13.90;83.42
80116;BME280;69423;47.608;19.366;2023-05-07T02:21:06;98972.16;;;13.90;83.00
80116;BME280;69423;47.608;19.366;2023-05-07T02:21:37;98968.22;;;13.93;82.73
80116;BME280;69423;47.608;19.366;2023-05-07T02:22:09;98965.13;;;13.89;83.31
80116;BME280;69423;47.608;19.366;2023-05-07T02:22:40;98967.59;;;13.91;83.15
80116;BME280;69423;47.608;19.366;2023-05-07T02:23:11;98965.75;;;13.91;83.16
80116;BME280;69423;47.608;19.366;2023-05-07T02:23:42;98962.25;;;13.91;83.01
80116;BME280;69423;47.608;19.366;2023-05-07T02:24:13;98965.53;;;13.86;82.82
80116;BME280;69423;47.608;19.366;2023-05-07T02:24:43;98957.69;;;13.85;82.83
80116;BME280;69423;47.608;19.366;2023-05-07T02:25:15;98964.72;;;13.86;82.77
80116;BME280;69423;47.608;19.366;2023-05-07T02:25:46;98951.31;;;13.86;82.32
80116;BME280;69423;47.608;19.366;2023-05-07T02:26:17;98964.91;;;13.84;82.04
80116;BME280;69423;47.608;19.366;2023-05-07T02:26:49;98960.38;;;13.78;82.83
80116;BME280;69423;47.608;19.366;2023-05-07T02:27:20;98965.53;;;13.73;82.71
80116;BME280;69423;47.608;19.366;2023-05-07T02:27:50;98961.19;;;13.72;82.11
80116;BME280;69423;47.608;19.366;2023-05-07T02:28:21;98972.94;;;13.71;82.84
80116;BME280;69423;47.608;19.366;2023-05-07T02:28:52;98963.66;;;13.73;81.97
80116;BME280;69423;47.608;19.366;2023-05-07T02:29:24;98960.16;;;13.73;81.97
80116;BME280;69423;47.608;19.366;2023-05-07T02:29:55;98969.03;;;13.67;82.43
80116;BME280;69423;47.608;19.366;2023-05-07T02:30:26;98966.13;;;13.68;81.90
80116;BME280;69423;47.608;19.366;2023-05-07T02:30:57;98968.16;;;13.66;82.50
80116;BME280;69423;47.608;19.366;2023-05-07T02:31:29;98961.16;;;13.65;81.30
80116;BME280;69423;47.608;19.366;2023-05-07T02:31:59;98972.09;;;13.64;81.57
80116;BME280;69423;47.608;19.366;2023-05-07T02:32:30;98961.38;;;13.64;81.83
80116;BME280;69423;47.608;19.366;2023-05-07T02:33:01;98957.06;;;13.63;81.59
80116;BME280;69423;47.608;19.366;2023-05-07T02:33:32;98961.78;;;13.61;81.60
80116;BME280;69423;47.608;19.366;2023-05-07T02:34:03;98961.16;;;13.59;82.06
80116;BME280;69423;47.608;19.366;2023-05-07T02:34:34;98969.59;;;13.55;81.96
80116;BME280;69423;47.608;19.366;2023-05-07T02:35:05;98958.25;;;13.53;82.46
80116;BME280;69423;47.608;19.366;2023-05-07T02:35:36;98966.28;;;13.53;81.81
80116;BME280;69423;47.608;19.366;2023-05-07T02:36:11;98967.53;;;13.51;81.73
80116;BME280;69423;47.608;19.366;2023-05-07T02:36:43;98957.00;;;13.49;82.28
80116;BME280;69423;47.608;19.366;2023-05-07T02:37:14;98955.75;;;13.45;82.36
80116;BME280;69423;47.608;19.366;2023-05-07T02:37:45;98957.63;;;13.45;81.82
80116;BME280;69423;47.608;19.366;2023-05-07T02:38:16;98963.38;;;13.42;81.95
80116;BME280;69423;47.608;19.366;2023-05-07T02:38:47;98966.00;;;13.35;82.34
80116;BME280;69423;47.608;19.366;2023-05-07T02:39:17;98960.28;;;13.38;82.73
80116;BME280;69423;47.608;19.366;2023-05-07T02:39:48;98966.25;;;13.40;82.56
80116;BME280;69423;47.608;19.366;2023-05-07T02:40:19;98967.06;;;13.41;82.48
80116;BME280;69423;47.608;19.366;2023-05-07T02:40:50;98951.81;;;13.41;82.00
80116;BME280;69423;47.608;19.366;2023-05-07T02:41:21;98964.41;;;13.41;82.04
80116;BME280;69423;47.608;19.366;2023-05-07T02:41:52;98966.25;;;13.40;81.81
80116;BME280;69423;47.608;19.366;2023-05-07T02:42:23;98963.56;;;13.40;81.77
80116;BME280;69423;47.608;19.366;2023-05-07T02:42:53;98966.25;;;13.40;81.80
80116;BME280;69423;47.608;19.366;2023-05-07T02:43:24;98965.63;;;13.38;82.52
80116;BME280;69423;47.608;19.366;2023-05-07T02:43:55;98965.44;;;13.40;82.87
80116;BME280;69423;47.608;19.366;2023-05-07T02:44:26;98969.56;;;13.42;82.83
80116;BME280;69423;47.608;19.366;2023-05-07T02:44:57;98961.53;;;13.42;82.69
80116;BME280;69423;47.608;19.366;2023-05-07T02:45:28;98968.13;;;13.40;82.63
80116;BME280;69423;47.608;19.366;2023-05-07T02:46:02;98971.63;;;13.40;82.47